createdAt,value
2024-05-09T05:33:15.074Z,99.90
2024-05-09T06:15:39.514Z,99.90
2024-05-09T07:00:35.801Z,99.90
2024-05-09T07:03:16.737Z,99.90
2024-05-09T07:05:46.831Z,99.90
2024-05-09T08:30:48.787Z,99.90
2024-05-09T09:38:38.065Z,69.20
2024-05-09T09:51:10.597Z,78.10
2024-05-09T09:53:40.832Z,78.80
2024-05-09T09:56:08.747Z,74.30
2024-05-09T09:58:38.440Z,71.70
2024-05-09T10:01:05.564Z,68.70
2024-05-09T10:03:32.815Z,63.10
2024-05-09T10:06:00.317Z,68.10
2024-05-09T10:08:27.680Z,63.60
2024-05-09T10:13:34.822Z,64.80
2024-05-09T10:26:32.901Z,60.00
2024-05-09T10:33:57.528Z,57.50
2024-05-09T10:53:50.044Z,55.00
2024-05-09T10:56:17.403Z,57.20
2024-05-09T10:58:44.629Z,60.80
2024-05-09T11:01:13.302Z,58.70
2024-05-09T11:03:40.819Z,64.50
2024-05-09T11:06:09.763Z,60.00
2024-05-09T11:08:39.158Z,62.10
2024-05-09T11:11:08.001Z,62.10
2024-05-09T11:13:38.827Z,66.60
2024-05-09T11:16:21.797Z,65.20
2024-05-09T11:18:56.567Z,55.50
2024-05-09T11:21:24.558Z,58.60
2024-05-09T11:23:51.783Z,57.60
2024-05-09T11:26:19.647Z,58.70
2024-05-09T11:28:48.766Z,54.70
2024-05-09T11:36:13.636Z,58.30
2024-05-09T11:38:41.240Z,63.70
2024-05-09T11:41:11.302Z,50.90
2024-05-09T11:43:38.112Z,56.90
2024-05-09T12:15:49.076Z,47.00
2024-05-09T12:18:15.985Z,50.80
2024-05-09T12:20:43.117Z,50.40
2024-05-09T12:23:10.775Z,50.50
2024-05-09T12:25:40.759Z,50.60
2024-05-09T12:28:08.278Z,49.80
2024-05-09T12:38:11.340Z,36.20
2024-05-09T12:40:39.329Z,34.60
2024-05-09T12:43:10.833Z,35.00
2024-05-09T12:45:39.284Z,35.20
2024-05-09T12:48:11.144Z,38.90
2024-05-09T12:50:39.139Z,41.30
2024-05-09T12:53:06.048Z,43.50
2024-05-09T12:55:41.188Z,43.10
